sensor_id;sensor_type;location;lat;lon;timestamp;P1;durP1;ratioP1;P2;durP2;ratioP2
19679;SDS011;9989;48.962;9.182;2023-04-01T00:02:07;1.63;;;0.83;;
19679;SDS011;9989;48.962;9.182;2023-04-01T00:04:32;1.90;;;0.80;;
19679;SDS011;9989;48.962;9.182;2023-04-01T00:06:58;3.10;;;1.07;;
19679;SDS011;9989;48.962;9.182;2023-04-01T00:09:24;3.53;;;1.00;;
19679;SDS011;9989;48.962;9.182;2023-04-01T00:11:50;2.57;;;0.97;;
19679;SDS011;9989;48.962;9.182;2023-04-01T00:14:15;3.43;;;1.00;;
19679;SDS011;9989;48.962;9.182;2023-04-01T00:16:41;2.53;;;0.80;;
19679;SDS011;9989;48.962;9.182;2023-04-01T00:19:06;2.97;;;0.83;;
19679;SDS011;9989;48.962;9.182;2023-04-01T00:21:32;2.70;;;0.87;;
19679;SDS011;9989;48.962;9.182;2023-04-01T00:23:58;1.73;;;0.90;;
19679;SDS011;9989;48.962;9.182;2023-04-01T00:26:24;2.43;;;1.07;;
19679;SDS011;9989;48.962;9.182;2023-04-01T00:28:50;2.47;;;1.00;;
19679;SDS011;9989;48.962;9.182;2023-04-01T00:31:15;3.50;;;1.20;;
19679;SDS011;9989;48.962;9.182;2023-04-01T00:33:41;3.90;;;0.97;;
19679;SDS011;9989;48.962;9.182;2023-04-01T00:38:36;3.33;;;0.80;;
19679;SDS011;9989;48.962;9.182;2023-04-01T00:41:03;1.73;;;0.80;;
19679;SDS011;9989;48.962;9.182;2023-04-01T00:43:28;3.13;;;0.90;;
19679;SDS011;9989;48.962;9.182;2023-04-01T00:45:55;2.07;;;0.90;;
19679;SDS011;9989;48.962;9.182;2023-04-01T00:48:28;5.10;;;1.03;;
19679;SDS011;9989;48.962;9.182;2023-04-01T00:53:55;3.87;;;1.20;;
19679;SDS011;9989;48.962;9.182;2023-04-01T00:56:33;3.30;;;0.93;;
19679;SDS011;9989;48.962;9.182;2023-04-01T00:59:16;3.83;;;1.17;;
19679;SDS011;9989;48.962;9.182;2023-04-01T01:01:46;4.30;;;0.90;;
19679;SDS011;9989;48.962;9.182;2023-04-01T01:04:25;3.47;;;0.90;;
19679;SDS011;9989;48.962;9.182;2023-04-01T01:07:13;2.90;;;1.13;;
19679;SDS011;9989;48.962;9.182;2023-04-01T01:10:11;5.10;;;1.27;;
19679;SDS011;9989;48.962;9.182;2023-04-01T01:26:39;8.37;;;1.63;;
19679;SDS011;9989;48.962;9.182;2023-04-01T01:37:48;3.40;;;0.90;;
19679;SDS011;9989;48.962;9.182;2023-04-01T01:40:18;5.53;;;1.10;;
19679;SDS011;9989;48.962;9.182;2023-04-01T01:42:47;3.87;;;0.90;;
19679;SDS011;9989;48.962;9.182;2023-04-01T01:45:18;3.80;;;1.00;;
19679;SDS011;9989;48.962;9.182;2023-04-01T01:47:46;3.30;;;0.90;;
19679;SDS011;9989;48.962;9.182;2023-04-01T01:50:14;5.33;;;1.10;;
19679;SDS011;9989;48.962;9.182;2023-04-01T01:52:41;5.43;;;0.93;;
19679;SDS011;9989;48.962;9.182;2023-04-01T01:55:23;3.73;;;0.93;;
19679;SDS011;9989;48.962;9.182;2023-04-01T01:57:59;5.23;;;1.37;;
19679;SDS011;9989;48.962;9.182;2023-04-01T02:00:30;3.90;;;1.00;;
19679;SDS011;9989;48.962;9.182;2023-04-01T02:02:57;3.37;;;1.00;;
19679;SDS011;9989;48.962;9.182;2023-04-01T02:05:24;3.50;;;1.00;;
19679;SDS011;9989;48.962;9.182;2023-04-01T02:08:12;2.53;;;0.90;;
19679;SDS011;9989;48.962;9.182;2023-04-01T02:10:42;2.17;;;0.80;;
19679;SDS011;9989;48.962;9.182;2023-04-01T02:13:16;2.30;;;0.80;;
19679;SDS011;9989;48.962;9.182;2023-04-01T02:15:49;12.60;;;2.50;;
19679;SDS011;9989;48.962;9.182;2023-04-01T02:18:17;0.60;;;0.60;;
19679;SDS011;9989;48.962;9.182;2023-04-01T02:20:45;2.73;;;1.23;;
19679;SDS011;9989;48.962;9.182;2023-04-01T02:23:11;2.27;;;0.97;;
19679;SDS011;9989;48.962;9.182;2023-04-01T02:25:40;4.13;;;1.30;;
19679;SDS011;9989;48.962;9.182;2023-04-01T02:28:07;3.17;;;1.00;;
19679;SDS011;9989;48.962;9.182;2023-04-01T02:30:35;4.77;;;0.90;;
19679;SDS011;9989;48.962;9.182;2023-04-01T02:33:03;2.07;;;0.77;;
19679;SDS011;9989;48.962;9.182;2023-04-01T02:35:30;4.60;;;0.90;;
19679;SDS011;9989;48.962;9.182;2023-04-01T02:38:01;2.40;;;0.80;;
19679;SDS011;9989;48.962;9.182;2023-04-01T02:40:27;3.20;;;0.77;;
19679;SDS011;9989;48.962;9.182;2023-04-01T02:42:53;2.83;;;0.80;;
19679;SDS011;9989;48.962;9.182;2023-04-01T02:45:19;4.43;;;0.80;;
19679;SDS011;9989;48.962;9.182;2023-04-01T02:47:44;3.00;;;0.97;;
19679;SDS011;9989;48.962;9.182;2023-04-01T02:50:10;2.90;;;0.77;;
19679;SDS011;9989;48.962;9.182;2023-04-01T02:52:39;3.27;;;0.90;;
19679;SDS011;9989;48.962;9.182;2023-04-01T02:55:05;3.17;;;1.00;;
19679;SDS011;9989;48.962;9.182;2023-04-01T02:57:31;3.20;;;0.80;;
19679;SDS011;9989;48.962;9.182;2023-04-01T02:59:56;6.80;;;0.90;;
19679;SDS011;9989;48.962;9.182;2023-04-01T03:02:22;4.57;;;0.90;;
19679;SDS011;9989;48.962;9.182;2023-04-01T03:04:47;3.03;;;0.90;;
19679;SDS011;9989;48.962;9.182;2023-04-01T03:07:13;3.63;;;1.00;;
19679;SDS011;9989;48.962;9.182;2023-04-01T03:09:39;3.27;;;1.00;;
19679;SDS011;9989;48.962;9.182;2023-04-01T03:12:05;4.47;;;1.00;;
19679;SDS011;9989;48.962;9.182;2023-04-01T03:14:30;4.10;;;0.83;;
19679;SDS011;9989;48.962;9.182;2023-04-01T03:16:56;3.20;;;0.70;;
19679;SDS011;9989;48.962;9.182;2023-04-01T03:19:21;2.67;;;1.00;;
19679;SDS011;9989;48.962;9.182;2023-04-01T03:21:47;1.63;;;0.80;;
19679;SDS011;9989;48.962;9.182;2023-04-01T03:24:13;5.80;;;0.87;;
19679;SDS011;9989;48.962;9.182;2023-04-01T03:26:38;1.87;;;0.80;;
19679;SDS011;9989;48.962;9.182;2023-04-01T03:29:04;4.43;;;1.00;;
19679;SDS011;9989;48.962;9.182;2023-04-01T03:31:30;1.47;;;0.77;;
19679;SDS011;9989;48.962;9.182;2023-04-01T03:33:55;4.37;;;0.90;;
19679;SDS011;9989;48.962;9.182;2023-04-01T03:36:21;2.33;;;0.70;;
19679;SDS011;9989;48.962;9.182;2023-04-01T03:38:47;1.70;;;0.80;;
19679;SDS011;9989;48.962;9.182;2023-04-01T03:41:16;1.70;;;0.90;;
19679;SDS011;9989;48.962;9.182;2023-04-01T03:43:42;2.10;;;0.97;;
19679;SDS011;9989;48.962;9.182;2023-04-01T03:46:08;1.90;;;0.73;;
19679;SDS011;9989;48.962;9.182;2023-04-01T03:48:34;2.30;;;0.70;;
19679;SDS011;9989;48.962;9.182;2023-04-01T03:51:00;2.07;;;0.73;;
19679;SDS011;9989;48.962;9.182;2023-04-01T03:53:26;3.53;;;0.67;;
19679;SDS011;9989;48.962;9.182;2023-04-01T03:55:52;1.53;;;0.77;;
19679;SDS011;9989;48.962;9.182;2023-04-01T03:58:17;2.50;;;0.83;;
19679;SDS011;9989;48.962;9.182;2023-04-01T04:00:43;3.27;;;1.30;;
19679;SDS011;9989;48.962;9.182;2023-04-01T04:03:09;2.97;;;0.80;;
19679;SDS011;9989;48.962;9.182;2023-04-01T04:05:35;3.47;;;1.10;;
19679;SDS011;9989;48.962;9.182;2023-04-01T04:08:00;3.10;;;0.90;;
19679;SDS011;9989;48.962;9.182;2023-04-01T04:10:26;2.00;;;0.77;;
19679;SDS011;9989;48.962;9.182;2023-04-01T04:12:54;4.07;;;1.67;;
19679;SDS011;9989;48.962;9.182;2023-04-01T04:15:20;2.20;;;0.70;;
19679;SDS011;9989;48.962;9.182;2023-04-01T04:17:46;2.97;;;1.10;;
19679;SDS011;9989;48.962;9.182;2023-04-01T04:20:12;1.67;;;0.73;;
19679;SDS011;9989;48.962;9.182;2023-04-01T04:22:38;3.47;;;0.70;;
19679;SDS011;9989;48.962;9.182;2023-04-01T04:25:04;2.83;;;0.67;;
19679;SDS011;9989;48.962;9.182;2023-04-01T04:27:30;2.97;;;0.77;;
19679;SDS011;9989;48.962;9.182;2023-04-01T04:29:56;1.50;;;0.60;;
19679;SDS011;9989;48.962;9.182;2023-04-01T04:32:21;2.87;;;0.73;;
19679;SDS011;9989;48.962;9.182;2023-04-01T04:34:47;1.53;;;0.70;;
19679;SDS011;9989;48.962;9.182;2023-04-01T04:37:12;4.50;;;1.43;;
19679;SDS011;9989;48.962;9.182;2023-04-01T04:39:38;3.67;;;0.70;;
19679;SDS011;9989;48.962;9.182;2023-04-01T04:42:06;3.33;;;0.90;;
19679;SDS011;9989;48.962;9.182;2023-04-01T04:44:32;5.80;;;0.90;;
19679;SDS011;9989;48.962;9.182;2023-04-01T04:46:57;4.23;;;1.07;;
19679;SDS011;9989;48.962;9.182;2023-04-01T04:49:23;3.33;;;0.70;;
19679;SDS011;9989;48.962;9.182;2023-04-01T04:51:48;3.90;;;0.70;;
19679;SDS011;9989;48.962;9.182;2023-04-01T04:54:14;5.60;;;0.80;;
19679;SDS011;9989;48.962;9.182;2023-04-01T04:56:40;2.83;;;0.70;;
19679;SDS011;9989;48.962;9.182;2023-04-01T04:59:05;6.13;;;1.07;;
19679;SDS011;9989;48.962;9.182;2023-04-01T05:01:32;1.33;;;0.80;;
19679;SDS011;9989;48.962;9.182;2023-04-01T05:03:58;3.03;;;0.70;;
19679;SDS011;9989;48.962;9.182;2023-04-01T05:06:24;1.90;;;0.73;;
19679;SDS011;9989;48.962;9.182;2023-04-01T05:08:50;1.57;;;0.83;;
19679;SDS011;9989;48.962;9.182;2023-04-01T05:11:19;3.37;;;0.90;;
19679;SDS011;9989;48.962;9.182;2023-04-01T05:13:45;4.27;;;0.83;;
19679;SDS011;9989;48.962;9.182;2023-04-01T05:16:13;3.87;;;0.80;;
19679;SDS011;9989;48.962;9.182;2023-04-01T05:18:40;3.03;;;0.87;;
19679;SDS011;9989;48.962;9.182;2023-04-01T05:21:10;3.27;;;1.00;;
19679;SDS011;9989;48.962;9.182;2023-04-01T05:23:36;3.53;;;1.00;;
19679;SDS011;9989;48.962;9.182;2023-04-01T05:26:06;2.77;;;0.83;;
19679;SDS011;9989;48.962;9.182;2023-04-01T05:28:33;1.47;;;0.63;;
19679;SDS011;9989;48.962;9.182;2023-04-01T05:30:59;5.43;;;1.00;;
19679;SDS011;9989;48.962;9.182;2023-04-01T05:33:26;2.27;;;0.73;;
19679;SDS011;9989;48.962;9.182;2023-04-01T05:35:52;4.10;;;1.07;;
19679;SDS011;9989;48.962;9.182;2023-04-01T05:38:18;2.77;;;0.90;;
19679;SDS011;9989;48.962;9.182;2023-04-01T05:40:44;3.77;;;0.80;;
19679;SDS011;9989;48.962;9.182;2023-04-01T05:43:10;2.37;;;0.90;;
19679;SDS011;9989;48.962;9.182;2023-04-01T05:45:36;4.70;;;1.10;;
19679;SDS011;9989;48.962;9.182;2023-04-01T05:48:02;2.60;;;1.00;;
19679;SDS011;9989;48.962;9.182;2023-04-01T05:50:28;2.37;;;0.90;;
19679;SDS011;9989;48.962;9.182;2023-04-01T05:52:53;3.50;;;1.10;;
19679;SDS011;9989;48.962;9.182;2023-04-01T05:55:19;3.90;;;1.10;;
19679;SDS011;9989;48.962;9.182;2023-04-01T05:57:45;4.30;;;1.50;;
19679;SDS011;9989;48.962;9.182;2023-04-01T06:00:13;1.93;;;1.00;;
19679;SDS011;9989;48.962;9.182;2023-04-01T06:02:39;3.57;;;1.10;;
19679;SDS011;9989;48.962;9.182;2023-04-01T06:05:19;3.40;;;1.00;;
19679;SDS011;9989;48.962;9.182;2023-04-01T06:07:46;4.83;;;1.20;;
19679;SDS011;9989;48.962;9.182;2023-04-01T06:10:13;4.50;;;1.20;;
19679;SDS011;9989;48.962;9.182;2023-04-01T06:27:16;5.73;;;1.00;;
19679;SDS011;9989;48.962;9.182;2023-04-01T06:33:02;3.53;;;0.90;;
19679;SDS011;9989;48.962;9.182;2023-04-01T06:49:56;7.20;;;1.33;;
19679;SDS011;9989;48.962;9.182;2023-04-01T06:57:49;4.40;;;0.97;;
19679;SDS011;9989;48.962;9.182;2023-04-01T07:00:30;2.57;;;1.23;;
19679;SDS011;9989;48.962;9.182;2023-04-01T07:03:10;2.70;;;0.90;;
19679;SDS011;9989;48.962;9.182;2023-04-01T07:05:46;3.83;;;1.10;;
19679;SDS011;9989;48.962;9.182;2023-04-01T07:08:13;2.83;;;0.90;;
19679;SDS011;9989;48.962;9.182;2023-04-01T07:10:50;2.90;;;0.90;;
19679;SDS011;9989;48.962;9.182;2023-04-01T07:16:17;4.90;;;1.33;;
19679;SDS011;9989;48.962;9.182;2023-04-01T07:21:35;4.67;;;1.23;;
19679;SDS011;9989;48.962;9.182;2023-04-01T07:24:16;3.40;;;1.00;;
19679;SDS011;9989;48.962;9.182;2023-04-01T07:26:52;3.17;;;1.17;;
19679;SDS011;9989;48.962;9.182;2023-04-01T07:29:21;2.43;;;0.90;;
19679;SDS011;9989;48.962;9.182;2023-04-01T07:34:23;1.27;;;0.70;;
19679;SDS011;9989;48.962;9.182;2023-04-01T07:37:15;3.93;;;0.90;;
19679;SDS011;9989;48.962;9.182;2023-04-01T07:50:59;3.60;;;1.20;;
19679;SDS011;9989;48.962;9.182;2023-04-01T07:56:09;4.87;;;1.00;;
19679;SDS011;9989;48.962;9.182;2023-04-01T08:04:28;3.73;;;1.30;;
19679;SDS011;9989;48.962;9.182;2023-04-01T08:07:12;4.27;;;1.10;;
19679;SDS011;9989;48.962;9.182;2023-04-01T08:10:06;3.03;;;1.10;;
19679;SDS011;9989;48.962;9.182;2023-04-01T08:20:56;2.17;;;1.00;;
19679;SDS011;9989;48.962;9.182;2023-04-01T08:23:31;4.07;;;1.20;;
19679;SDS011;9989;48.962;9.182;2023-04-01T08:28:43;7.13;;;1.87;;
19679;SDS011;9989;48.962;9.182;2023-04-01T08:32:00;1.57;;;0.80;;
19679;SDS011;9989;48.962;9.182;2023-04-01T08:34:14;2.00;;;0.80;;
19679;SDS011;9989;48.962;9.182;2023-04-01T08:36:49;1.57;;;0.80;;
19679;SDS011;9989;48.962;9.182;2023-04-01T08:39:23;1.37;;;0.80;;
19679;SDS011;9989;48.962;9.182;2023-04-01T08:53:38;5.17;;;1.03;;
19679;SDS011;9989;48.962;9.182;2023-04-01T08:56:34;3.00;;;0.87;;
19679;SDS011;9989;48.962;9.182;2023-04-01T08:59:18;3.37;;;1.00;;
19679;SDS011;9989;48.962;9.182;2023-04-01T09:16:23;5.20;;;1.00;;
19679;SDS011;9989;48.962;9.182;2023-04-01T09:19:05;5.17;;;1.50;;
19679;SDS011;9989;48.962;9.182;2023-04-01T09:35:46;4.10;;;1.30;;
19679;SDS011;9989;48.962;9.182;2023-04-01T09:46:31;1.97;;;0.93;;
19679;SDS011;9989;48.962;9.182;2023-04-01T10:05:13;1.47;;;0.70;;
19679;SDS011;9989;48.962;9.182;2023-04-01T10:19:15;2.27;;;1.07;;
19679;SDS011;9989;48.962;9.182;2023-04-01T10:55:53;0.93;;;0.70;;
19679;SDS011;9989;48.962;9.182;2023-04-01T11:01:55;1.70;;;0.80;;
19679;SDS011;9989;48.962;9.182;2023-04-01T11:04:40;1.40;;;0.70;;
19679;SDS011;9989;48.962;9.182;2023-04-01T11:07:30;1.17;;;0.70;;
19679;SDS011;9989;48.962;9.182;2023-04-01T11:30:33;0.80;;;0.70;;
19679;SDS011;9989;48.962;9.182;2023-04-01T11:38:42;1.43;;;0.70;;
19679;SDS011;9989;48.962;9.182;2023-04-01T11:41:37;0.90;;;0.70;;
19679;SDS011;9989;48.962;9.182;2023-04-01T11:44:16;0.93;;;0.70;;
19679;SDS011;9989;48.962;9.182;2023-04-01T11:52:15;2.37;;;1.03;;
19679;SDS011;9989;48.962;9.182;2023-04-01T12:05:32;0.43;;;0.43;;
19679;SDS011;9989;48.962;9.182;2023-04-01T12:08:11;0.50;;;0.50;;
19679;SDS011;9989;48.962;9.182;2023-04-01T12:14:06;1.87;;;0.70;;
19679;SDS011;9989;48.962;9.182;2023-04-01T12:19:39;2.20;;;0.87;;
19679;SDS011;9989;48.962;9.182;2023-04-01T12:30:42;1.57;;;0.60;;
19679;SDS011;9989;48.962;9.182;2023-04-01T12:38:41;0.60;;;0.60;;
19679;SDS011;9989;48.962;9.182;2023-04-01T12:41:14;2.60;;;0.60;;
19679;SDS011;9989;48.962;9.182;2023-04-01T13:11:37;1.60;;;0.80;;
19679;SDS011;9989;48.962;9.182;2023-04-01T13:33:47;2.20;;;1.00;;
19679;SDS011;9989;48.962;9.182;2023-04-01T13:36:30;3.40;;;1.20;;
19679;SDS011;9989;48.962;9.182;2023-04-01T13:45:00;2.50;;;1.00;;
19679;SDS011;9989;48.962;9.182;2023-04-01T14:01:06;1.33;;;0.73;;
19679;SDS011;9989;48.962;9.182;2023-04-01T14:06:46;2.47;;;0.83;;
19679;SDS011;9989;48.962;9.182;2023-04-01T14:17:10;2.83;;;1.10;;
19679;SDS011;9989;48.962;9.182;2023-04-01T14:22:40;1.13;;;0.80;;
19679;SDS011;9989;48.962;9.182;2023-04-01T14:25:23;0.73;;;0.63;;
19679;SDS011;9989;48.962;9.182;2023-04-01T14:33:40;1.23;;;0.67;;
19679;SDS011;9989;48.962;9.182;2023-04-01T14:36:32;0.63;;;0.50;;
19679;SDS011;9989;48.962;9.182;2023-04-01T14:42:32;1.67;;;0.60;;
19679;SDS011;9989;48.962;9.182;2023-04-01T14:50:57;0.97;;;0.60;;
19679;SDS011;9989;48.962;9.182;2023-04-01T14:53:36;1.47;;;0.67;;
19679;SDS011;9989;48.962;9.182;2023-04-01T14:56:07;3.30;;;1.50;;
19679;SDS011;9989;48.962;9.182;2023-04-01T14:58:43;1.60;;;0.90;;
19679;SDS011;9989;48.962;9.182;2023-04-01T15:01:13;1.90;;;0.97;;
19679;SDS011;9989;48.962;9.182;2023-04-01T15:03:49;1.40;;;0.93;;
19679;SDS011;9989;48.962;9.182;2023-04-01T15:12:12;1.70;;;1.03;;
19679;SDS011;9989;48.962;9.182;2023-04-01T15:29:39;2.43;;;1.17;;
19679;SDS011;9989;48.962;9.182;2023-04-01T15:34:49;4.97;;;2.07;;
19679;SDS011;9989;48.962;9.182;2023-04-01T15:37:28;4.37;;;2.17;;
19679;SDS011;9989;48.962;9.182;2023-04-01T16:10:26;1.93;;;1.10;;
19679;SDS011;9989;48.962;9.182;2023-04-01T16:23:59;3.47;;;1.43;;
19679;SDS011;9989;48.962;9.182;2023-04-01T16:26:38;3.47;;;1.33;;
19679;SDS011;9989;48.962;9.182;2023-04-01T16:43:04;3.10;;;1.27;;
19679;SDS011;9989;48.962;9.182;2023-04-01T16:45:45;5.23;;;1.20;;
19679;SDS011;9989;48.962;9.182;2023-04-01T16:49:37;2.73;;;1.00;;
19679;SDS011;9989;48.962;9.182;2023-04-01T17:04:37;4.07;;;1.30;;
19679;SDS011;9989;48.962;9.182;2023-04-01T17:07:19;3.43;;;1.30;;
19679;SDS011;9989;48.962;9.182;2023-04-01T17:10:24;5.07;;;1.53;;
19679;SDS011;9989;48.962;9.182;2023-04-01T17:13:06;3.13;;;1.33;;
19679;SDS011;9989;48.962;9.182;2023-04-01T17:15:52;4.47;;;1.50;;
19679;SDS011;9989;48.962;9.182;2023-04-01T17:21:25;4.23;;;1.30;;
19679;SDS011;9989;48.962;9.182;2023-04-01T17:24:09;3.10;;;1.33;;
19679;SDS011;9989;48.962;9.182;2023-04-01T17:35:27;6.60;;;2.40;;
19679;SDS011;9989;48.962;9.182;2023-04-01T17:43:58;6.67;;;2.90;;
19679;SDS011;9989;48.962;9.182;2023-04-01T17:46:50;5.87;;;2.07;;
19679;SDS011;9989;48.962;9.182;2023-04-01T17:53:01;3.50;;;1.20;;
19679;SDS011;9989;48.962;9.182;2023-04-01T17:55:53;5.07;;;1.50;;
19679;SDS011;9989;48.962;9.182;2023-04-01T18:01:21;4.57;;;1.50;;
19679;SDS011;9989;48.962;9.182;2023-04-01T18:14:54;4.83;;;1.50;;
19679;SDS011;9989;48.962;9.182;2023-04-01T18:23:57;4.83;;;1.70;;
19679;SDS011;9989;48.962;9.182;2023-04-01T18:26:31;4.80;;;2.10;;
19679;SDS011;9989;48.962;9.182;2023-04-01T18:29:01;6.00;;;2.10;;
19679;SDS011;9989;48.962;9.182;2023-04-01T18:31:51;2.37;;;1.17;;
19679;SDS011;9989;48.962;9.182;2023-04-01T18:45:35;4.13;;;1.70;;
19679;SDS011;9989;48.962;9.182;2023-04-01T18:48:11;5.17;;;2.07;;
19679;SDS011;9989;48.962;9.182;2023-04-01T18:50:51;2.57;;;0.90;;
19679;SDS011;9989;48.962;9.182;2023-04-01T18:56:29;5.33;;;1.50;;
19679;SDS011;9989;48.962;9.182;2023-04-01T18:59:02;4.10;;;1.53;;
19679;SDS011;9989;48.962;9.182;2023-04-01T19:01:38;6.03;;;2.57;;
19679;SDS011;9989;48.962;9.182;2023-04-01T19:04:30;3.37;;;1.30;;
19679;SDS011;9989;48.962;9.182;2023-04-01T19:09:51;3.73;;;1.20;;
19679;SDS011;9989;48.962;9.182;2023-04-01T19:15:23;5.13;;;1.60;;
19679;SDS011;9989;48.962;9.182;2023-04-01T19:18:11;6.20;;;1.90;;
19679;SDS011;9989;48.962;9.182;2023-04-01T19:20:59;6.97;;;2.10;;
19679;SDS011;9989;48.962;9.182;2023-04-01T19:23:51;9.60;;;3.10;;
19679;SDS011;9989;48.962;9.182;2023-04-01T19:29:33;8.83;;;3.03;;
19679;SDS011;9989;48.962;9.182;2023-04-01T19:32:29;7.97;;;2.83;;
19679;SDS011;9989;48.962;9.182;2023-04-01T19:42:56;5.77;;;2.43;;
19679;SDS011;9989;48.962;9.182;2023-04-01T19:48:33;7.07;;;2.87;;
19679;SDS011;9989;48.962;9.182;2023-04-01T19:51:15;7.80;;;3.27;;
19679;SDS011;9989;48.962;9.182;2023-04-01T19:56:41;7.97;;;3.33;;
19679;SDS011;9989;48.962;9.182;2023-04-01T19:59:21;11.40;;;4.17;;
19679;SDS011;9989;48.962;9.182;2023-04-01T20:04:38;7.03;;;2.60;;
19679;SDS011;9989;48.962;9.182;2023-04-01T20:07:07;7.93;;;2.90;;
19679;SDS011;9989;48.962;9.182;2023-04-01T20:14:48;7.10;;;3.23;;
19679;SDS011;9989;48.962;9.182;2023-04-01T20:17:27;6.47;;;2.23;;
19679;SDS011;9989;48.962;9.182;2023-04-01T20:27:55;7.60;;;2.50;;
19679;SDS011;9989;48.962;9.182;2023-04-01T20:35:51;6.67;;;2.20;;
19679;SDS011;9989;48.962;9.182;2023-04-01T20:41:08;5.83;;;2.40;;
19679;SDS011;9989;48.962;9.182;2023-04-01T21:00:27;5.67;;;2.20;;
19679;SDS011;9989;48.962;9.182;2023-04-01T21:03:13;4.63;;;2.10;;
19679;SDS011;9989;48.962;9.182;2023-04-01T21:10:57;6.20;;;2.30;;
19679;SDS011;9989;48.962;9.182;2023-04-01T21:16:41;7.30;;;2.90;;
19679;SDS011;9989;48.962;9.182;2023-04-01T21:27:00;7.33;;;2.50;;
19679;SDS011;9989;48.962;9.182;2023-04-01T21:32:37;5.80;;;2.40;;
19679;SDS011;9989;48.962;9.182;2023-04-01T21:35:26;8.47;;;2.70;;
19679;SDS011;9989;48.962;9.182;2023-04-01T21:52:10;4.20;;;2.00;;
19679;SDS011;9989;48.962;9.182;2023-04-01T21:57:57;6.50;;;2.80;;
19679;SDS011;9989;48.962;9.182;2023-04-01T22:12:17;4.23;;;1.80;;
19679;SDS011;9989;48.962;9.182;2023-04-01T22:18:04;5.57;;;2.10;;
19679;SDS011;9989;48.962;9.182;2023-04-01T22:20:55;5.57;;;2.10;;
19679;SDS011;9989;48.962;9.182;2023-04-01T22:29:25;4.83;;;1.93;;
19679;SDS011;9989;48.962;9.182;2023-04-01T22:40:47;6.73;;;1.70;;
19679;SDS011;9989;48.962;9.182;2023-04-01T22:43:44;4.40;;;1.70;;
19679;SDS011;9989;48.962;9.182;2023-04-01T22:54:36;2.73;;;1.20;;
19679;SDS011;9989;48.962;9.182;2023-04-01T22:57:12;2.40;;;1.17;;
19679;SDS011;9989;48.962;9.182;2023-04-01T23:02:36;5.07;;;1.40;;
19679;SDS011;9989;48.962;9.182;2023-04-01T23:05:05;2.77;;;1.67;;
19679;SDS011;9989;48.962;9.182;2023-04-01T23:10:28;4.53;;;1.77;;
19679;SDS011;9989;48.962;9.182;2023-04-01T23:13:32;3.23;;;1.57;;
19679;SDS011;9989;48.962;9.182;2023-04-01T23:19:24;3.47;;;1.20;;
19679;SDS011;9989;48.962;9.182;2023-04-01T23:22:54;4.50;;;1.40;;
19679;SDS011;9989;48.962;9.182;2023-04-01T23:33:11;4.97;;;1.43;;
19679;SDS011;9989;48.962;9.182;2023-04-01T23:35:51;4.60;;;1.80;;
19679;SDS011;9989;48.962;9.182;2023-04-01T23:38:30;4.07;;;1.57;;
19679;SDS011;9989;48.962;9.182;2023-04-01T23:40:59;4.77;;;1.87;;
19679;SDS011;9989;48.962;9.182;2023-04-01T23:43:26;4.97;;;1.90;;
19679;SDS011;9989;48.962;9.182;2023-04-01T23:45:56;4.47;;;2.00;;
19679;SDS011;9989;48.962;9.182;2023-04-01T23:48:29;2.57;;;1.30;;
19679;SDS011;9989;48.962;9.182;2023-04-01T23:50:57;3.57;;;1.37;;
19679;SDS011;9989;48.962;9.182;2023-04-01T23:53:24;2.40;;;1.30;;
19679;SDS011;9989;48.962;9.182;2023-04-01T23:55:53;3.20;;;1.40;;
